createdAt,value
2019-01-26T00:02:26.373Z,69.62
2019-01-26T00:11:26.906Z,71.48
2019-01-26T00:13:57.243Z,73.15
2019-01-26T00:16:27.624Z,74.18
2019-01-26T00:18:58.126Z,75.60
2019-01-26T00:21:28.420Z,76.55
2019-01-26T00:24:17.649Z,77.30
2019-01-26T00:26:48.015Z,78.87
2019-01-26T00:29:18.417Z,79.95
2019-01-26T00:34:55.595Z,81.49
2019-01-26T00:37:25.990Z,82.43
2019-01-26T00:39:56.355Z,83.19
2019-01-26T00:42:27.573Z,83.81
2019-01-26T00:44:57.841Z,83.99
2019-01-26T00:47:28.149Z,84.82
2019-01-26T00:52:54.122Z,85.96
2019-01-26T00:55:24.396Z,85.86
2019-01-26T00:57:54.689Z,86.43
2019-01-26T01:00:25.081Z,86.26
2019-01-26T01:02:55.442Z,86.38
2019-01-26T01:05:25.733Z,86.58
2019-01-26T01:07:56.063Z,87.13
2019-01-26T01:13:36.577Z,88.22
2019-01-26T01:16:18.606Z,88.12
2019-01-26T01:18:48.959Z,87.88
2019-01-26T01:21:19.191Z,87.50
2019-01-26T01:23:49.486Z,87.48
2019-01-26T01:26:20.030Z,87.68
2019-01-26T01:28:50.308Z,87.90
2019-01-26T01:31:20.660Z,88.16
2019-01-26T01:34:04.835Z,88.28
2019-01-26T01:39:17.747Z,88.37
2019-01-26T01:41:47.998Z,88.54
2019-01-26T01:44:37.469Z,88.39
2019-01-26T01:47:07.895Z,88.30
2019-01-26T01:49:38.319Z,88.48
2019-01-26T01:52:10.655Z,88.49
2019-01-26T01:55:18.878Z,88.35
2019-01-26T01:57:49.270Z,88.50
2019-01-26T02:03:04.939Z,88.30
2019-01-26T02:05:35.253Z,88.28
2019-01-26T02:08:05.583Z,87.98
2019-01-26T02:13:34.113Z,87.36
2019-01-26T02:16:24.726Z,86.79
2019-01-26T02:21:58.928Z,85.96
2019-01-26T02:24:29.375Z,83.96
2019-01-26T02:26:59.709Z,82.70
2019-01-26T02:33:04.829Z,83.67
2019-01-26T02:35:35.183Z,82.15
2019-01-26T02:38:05.545Z,81.28
2019-01-26T02:40:35.810Z,80.94
2019-01-26T02:45:50.236Z,80.42
2019-01-26T02:48:20.566Z,80.36
2019-01-26T02:50:50.944Z,80.50
2019-01-26T02:53:21.280Z,81.22
2019-01-26T02:55:51.652Z,81.68
2019-01-26T02:58:22.318Z,82.05
2019-01-26T03:00:52.911Z,82.57
2019-01-26T03:03:23.207Z,82.70
2019-01-26T03:05:53.800Z,83.42
2019-01-26T03:08:24.121Z,84.31
2019-01-26T03:10:56.237Z,84.44
2019-01-26T03:13:26.585Z,84.93
2019-01-26T03:15:57.022Z,85.29
2019-01-26T03:18:27.262Z,86.40
2019-01-26T03:20:57.593Z,86.81
2019-01-26T03:23:27.885Z,87.70
2019-01-26T03:31:44.157Z,88.51
2019-01-26T03:34:14.518Z,88.73
2019-01-26T03:36:44.799Z,88.85
2019-01-26T03:42:23.407Z,88.98
2019-01-26T03:44:53.736Z,89.29
2019-01-26T03:47:26.726Z,89.68
2019-01-26T03:49:57.036Z,90.38
2019-01-26T03:52:27.345Z,90.70
2019-01-26T03:54:57.632Z,90.93
2019-01-26T03:57:27.983Z,91.54
2019-01-26T03:59:58.357Z,90.70
2019-01-26T04:05:21.848Z,90.72
2019-01-26T04:07:52.364Z,90.89
2019-01-26T04:13:59.698Z,90.26
2019-01-26T04:16:30.052Z,90.55
2019-01-26T04:19:00.343Z,90.37
2019-01-26T04:21:30.630Z,90.61
2019-01-26T04:24:07.045Z,91.63
2019-01-26T04:26:37.407Z,91.88
2019-01-26T04:29:07.649Z,92.56
2019-01-26T04:31:38.071Z,92.55
2019-01-26T04:37:15.364Z,92.81
2019-01-26T04:39:48.123Z,93.08
2019-01-26T04:42:20.513Z,93.09
2019-01-26T04:44:50.804Z,93.15
2019-01-26T04:47:21.341Z,93.01
2019-01-26T04:49:52.001Z,93.27
2019-01-26T04:52:35.257Z,93.51
2019-01-26T04:57:49.488Z,93.18
2019-01-26T05:00:28.536Z,93.04
2019-01-26T05:02:59.282Z,93.11
2019-01-26T05:05:29.603Z,93.15
2019-01-26T05:07:59.936Z,93.20
2019-01-26T05:10:30.311Z,93.79
2019-01-26T05:13:00.568Z,93.38
2019-01-26T05:15:31.120Z,93.58
2019-01-26T05:18:01.758Z,93.83
2019-01-26T05:20:32.286Z,93.82
2019-01-26T05:23:02.602Z,94.24
2019-01-26T05:25:58.723Z,94.48
2019-01-26T05:28:29.342Z,94.62
2019-01-26T05:30:59.717Z,94.65
2019-01-26T05:33:30.904Z,94.74
2019-01-26T05:36:01.355Z,94.98
2019-01-26T05:38:31.595Z,95.15
2019-01-26T05:41:02.030Z,94.66
2019-01-26T05:43:32.333Z,95.01
2019-01-26T05:46:02.605Z,95.25
2019-01-26T05:48:32.934Z,95.50
2019-01-26T05:53:59.629Z,95.22
2019-01-26T05:56:48.332Z,95.21
2019-01-26T05:59:18.619Z,95.36
2019-01-26T06:02:07.882Z,95.54
2019-01-26T06:04:38.180Z,95.41
2019-01-26T06:07:08.549Z,95.56
2019-01-26T06:09:39.011Z,95.44
2019-01-26T06:15:15.581Z,95.79
2019-01-26T06:17:46.061Z,95.64
2019-01-26T06:20:16.503Z,95.90
2019-01-26T06:22:47.168Z,96.03
2019-01-26T06:25:18.018Z,96.29
2019-01-26T06:27:48.615Z,96.25
2019-01-26T06:30:39.389Z,96.37
2019-01-26T06:33:09.674Z,96.40
2019-01-26T06:35:39.943Z,96.45
2019-01-26T06:38:10.271Z,96.59
2019-01-26T06:40:59.651Z,96.73
2019-01-26T06:43:30.005Z,96.75
2019-01-26T06:46:00.277Z,96.54
2019-01-26T06:48:30.527Z,96.54
2019-01-26T06:51:00.869Z,96.21
2019-01-26T06:53:31.123Z,96.26
2019-01-26T06:56:01.379Z,96.18
2019-01-26T07:01:26.619Z,96.00
2019-01-26T07:03:57.002Z,95.96
2019-01-26T07:10:09.235Z,95.78
2019-01-26T07:12:39.818Z,95.79
2019-01-26T07:15:11.309Z,95.73
2019-01-26T07:17:41.517Z,95.60
2019-01-26T07:20:12.028Z,95.53
2019-01-26T07:22:42.320Z,95.49
2019-01-26T07:25:12.666Z,95.34
2019-01-26T07:27:43.011Z,95.42
2019-01-26T07:30:15.355Z,95.28
2019-01-26T07:43:44.795Z,94.90
2019-01-26T07:46:15.043Z,95.03
2019-01-26T07:48:45.392Z,94.75
2019-01-26T07:51:15.722Z,94.69
2019-01-26T07:53:47.325Z,94.58
2019-01-26T07:56:31.448Z,94.67
2019-01-26T07:59:01.724Z,94.33
2019-01-26T08:04:27.607Z,94.34
2019-01-26T08:06:57.897Z,94.27
2019-01-26T08:09:28.192Z,94.18
2019-01-26T08:11:58.517Z,94.46
2019-01-26T08:14:28.707Z,94.31
2019-01-26T08:16:58.943Z,94.38
2019-01-26T08:19:29.204Z,94.40
2019-01-26T08:24:50.428Z,94.42
2019-01-26T08:27:20.790Z,94.79
2019-01-26T08:29:51.113Z,94.94
2019-01-26T08:32:21.424Z,95.03
2019-01-26T08:34:51.670Z,95.41
2019-01-26T08:37:21.994Z,95.25
2019-01-26T08:39:52.244Z,95.36
2019-01-26T08:42:22.477Z,95.58
2019-01-26T08:47:40.432Z,95.41
2019-01-26T08:50:21.838Z,95.83
2019-01-26T08:52:53.135Z,96.05
2019-01-26T08:55:23.606Z,96.01
2019-01-26T08:57:53.987Z,96.17
2019-01-26T09:00:26.389Z,96.16
2019-01-26T09:03:15.926Z,96.25
2019-01-26T09:06:06.233Z,96.24
2019-01-26T09:08:36.440Z,95.89
2019-01-26T09:11:06.904Z,95.93
2019-01-26T09:13:37.193Z,96.17
2019-01-26T09:16:07.562Z,96.35
2019-01-26T09:18:43.901Z,96.25
2019-01-26T09:21:14.221Z,96.22
2019-01-26T09:23:58.051Z,96.10
2019-01-26T09:26:28.365Z,95.82
2019-01-26T09:32:00.743Z,95.94
2019-01-26T09:34:31.098Z,95.68
2019-01-26T09:37:01.571Z,96.00
2019-01-26T09:45:28.896Z,95.53
2019-01-26T09:47:59.269Z,95.29
2019-01-26T09:50:29.623Z,95.35
2019-01-26T09:53:00.229Z,95.54
2019-01-26T10:01:17.545Z,95.28
2019-01-26T10:03:49.430Z,95.31
2019-01-26T10:12:06.984Z,95.33
2019-01-26T10:14:39.206Z,95.35
2019-01-26T10:17:09.551Z,95.47
2019-01-26T10:19:40.079Z,95.49
2019-01-26T10:25:12.897Z,95.05
2019-01-26T10:27:43.160Z,95.32
2019-01-26T10:30:37.450Z,95.39
2019-01-26T10:33:07.695Z,95.21
2019-01-26T10:35:57.237Z,95.13
2019-01-26T10:38:27.599Z,95.15
2019-01-26T10:41:16.854Z,95.17
2019-01-26T10:44:06.484Z,95.02
2019-01-26T10:46:37.029Z,94.80
2019-01-26T10:49:07.320Z,94.53
2019-01-26T10:51:37.589Z,95.03
2019-01-26T10:54:26.773Z,94.63
2019-01-26T10:56:57.127Z,94.91
2019-01-26T10:59:33.265Z,94.62
2019-01-26T11:04:51.139Z,93.95
2019-01-26T11:10:06.360Z,94.21
2019-01-26T11:15:26.226Z,94.31
2019-01-26T11:17:56.687Z,94.23
2019-01-26T11:20:26.951Z,93.77
2019-01-26T11:22:57.735Z,93.36
2019-01-26T11:25:46.028Z,93.71
2019-01-26T11:28:16.466Z,93.39
2019-01-26T11:30:46.860Z,93.29
2019-01-26T11:33:17.120Z,93.64
2019-01-26T11:35:47.461Z,93.08
2019-01-26T11:38:17.747Z,93.55
2019-01-26T11:40:48.107Z,93.49
2019-01-26T11:46:33.223Z,93.67
2019-01-26T11:49:04.195Z,93.57
2019-01-26T11:51:53.413Z,93.61
2019-01-26T11:54:23.716Z,93.81
2019-01-26T12:00:19.210Z,93.27
2019-01-26T12:05:51.479Z,93.33
2019-01-26T12:08:21.750Z,92.89
2019-01-26T12:13:39.138Z,92.90
2019-01-26T12:16:10.177Z,93.05
2019-01-26T12:18:40.462Z,92.75
2019-01-26T12:21:12.767Z,93.14
2019-01-26T12:23:43.047Z,92.71
2019-01-26T12:29:11.623Z,92.87
2019-01-26T12:31:41.844Z,92.39
2019-01-26T12:34:12.151Z,92.17
2019-01-26T12:36:42.386Z,92.18
2019-01-26T12:39:12.779Z,92.03
2019-01-26T12:41:43.144Z,92.45
2019-01-26T12:44:13.494Z,92.47
2019-01-26T12:46:43.746Z,91.70
2019-01-26T12:49:14.045Z,92.55
2019-01-26T12:51:50.656Z,92.48
2019-01-26T12:54:20.961Z,92.70
2019-01-26T12:56:51.216Z,92.52
2019-01-26T12:59:21.410Z,92.32
2019-01-26T13:01:52.736Z,93.46
2019-01-26T13:04:23.047Z,93.47
2019-01-26T13:10:03.864Z,93.19
2019-01-26T13:12:34.160Z,93.67
2019-01-26T13:15:04.963Z,93.50
2019-01-26T13:17:35.198Z,92.99
2019-01-26T13:23:08.707Z,93.56
2019-01-26T13:28:30.343Z,93.77
2019-01-26T13:31:00.568Z,93.24
2019-01-26T13:33:30.912Z,92.80
2019-01-26T13:36:01.174Z,93.12
2019-01-26T13:38:31.404Z,93.60
2019-01-26T13:43:57.261Z,94.19
2019-01-26T13:46:27.536Z,94.46
2019-01-26T13:48:57.752Z,94.65
2019-01-26T13:51:27.942Z,94.70
2019-01-26T13:53:58.174Z,94.90
2019-01-26T13:56:28.391Z,94.73
2019-01-26T13:58:58.643Z,94.71
2019-01-26T14:01:29.078Z,94.78
2019-01-26T14:03:59.305Z,94.93
2019-01-26T14:06:29.521Z,94.97
2019-01-26T14:08:59.742Z,95.34
2019-01-26T14:11:30.020Z,95.22
2019-01-26T14:14:00.239Z,95.27
2019-01-26T14:19:25.994Z,95.01
2019-01-26T14:21:56.275Z,95.05
2019-01-26T14:24:26.622Z,95.19
2019-01-26T14:26:56.841Z,95.47
2019-01-26T14:29:40.795Z,95.34
2019-01-26T14:32:11.095Z,95.28
2019-01-26T14:34:41.364Z,95.52
2019-01-26T14:37:11.571Z,95.53
2019-01-26T14:39:41.773Z,95.70
2019-01-26T14:42:12.006Z,95.84
2019-01-26T14:44:44.615Z,95.89
2019-01-26T14:47:14.926Z,96.23
2019-01-26T14:52:27.877Z,96.38
2019-01-26T14:54:58.192Z,96.57
2019-01-26T14:57:28.424Z,96.56
2019-01-26T14:59:58.652Z,96.63
2019-01-26T15:02:28.884Z,96.83
2019-01-26T15:04:59.159Z,96.70
2019-01-26T15:07:53.577Z,96.85
2019-01-26T15:10:23.757Z,96.85
2019-01-26T15:12:53.995Z,96.96
2019-01-26T15:18:34.631Z,97.10
2019-01-26T15:24:07.091Z,97.36
2019-01-26T15:26:37.363Z,97.56
2019-01-26T15:29:07.649Z,97.54
2019-01-26T15:31:50.214Z,97.44
2019-01-26T15:34:20.415Z,97.44
2019-01-26T15:36:50.714Z,97.50
2019-01-26T15:39:21.144Z,97.45
2019-01-26T15:41:51.420Z,97.67
2019-01-26T15:44:21.640Z,97.82
2019-01-26T15:46:51.923Z,97.81
2019-01-26T15:49:22.199Z,97.93
2019-01-26T15:51:52.446Z,97.92
2019-01-26T15:54:24.947Z,97.88
2019-01-26T15:56:55.223Z,97.98
2019-01-26T15:59:25.900Z,98.04
2019-01-26T16:01:56.338Z,97.95
2019-01-26T16:04:29.063Z,97.88
2019-01-26T16:06:59.290Z,98.04
2019-01-26T16:09:29.554Z,98.21
2019-01-26T16:14:59.494Z,98.15
2019-01-26T16:17:29.718Z,98.10
2019-01-26T16:19:59.989Z,98.15
2019-01-26T16:22:30.297Z,98.23
2019-01-26T16:25:01.455Z,98.15
2019-01-26T16:27:31.772Z,98.11
2019-01-26T16:30:02.045Z,98.18
2019-01-26T16:32:46.637Z,98.26
2019-01-26T16:35:16.926Z,98.27
2019-01-26T16:37:47.225Z,98.26
2019-01-26T16:40:20.132Z,98.19
2019-01-26T16:42:50.643Z,98.11
2019-01-26T16:45:23.314Z,97.99
2019-01-26T16:47:53.663Z,98.07
2019-01-26T16:50:27.673Z,98.00
2019-01-26T16:53:03.797Z,98.17
2019-01-26T16:55:34.019Z,98.05
2019-01-26T16:58:06.950Z,97.96
2019-01-26T17:00:58.228Z,97.93
2019-01-26T17:03:28.647Z,97.96
2019-01-26T17:05:58.919Z,97.96
2019-01-26T17:08:29.186Z,97.91
2019-01-26T17:10:59.590Z,97.72
2019-01-26T17:13:30.230Z,97.88
2019-01-26T17:19:05.747Z,97.80
2019-01-26T17:21:36.460Z,98.00
2019-01-26T17:24:06.771Z,97.90
2019-01-26T17:26:55.992Z,97.87
2019-01-26T17:29:26.297Z,97.86
2019-01-26T17:31:56.660Z,97.70
2019-01-26T17:34:30.404Z,97.57
2019-01-26T17:37:18.619Z,97.77
2019-01-26T17:39:48.913Z,97.94
2019-01-26T17:42:19.222Z,97.94
2019-01-26T17:44:49.430Z,97.97
2019-01-26T17:47:19.919Z,97.98
2019-01-26T17:49:50.242Z,98.01
2019-01-26T17:52:20.564Z,97.80
2019-01-26T17:54:50.812Z,97.77
2019-01-26T17:57:21.064Z,97.82
2019-01-26T18:02:36.654Z,97.79
2019-01-26T18:05:08.484Z,97.89
2019-01-26T18:07:38.781Z,97.71
2019-01-26T18:10:12.567Z,97.72
2019-01-26T18:12:42.845Z,97.69
2019-01-26T18:15:13.981Z,97.74
2019-01-26T18:17:44.873Z,97.82
2019-01-26T18:25:44.287Z,97.88
2019-01-26T18:31:04.074Z,97.84
2019-01-26T18:33:34.401Z,97.97
2019-01-26T18:36:17.456Z,97.90
2019-01-26T18:38:47.757Z,98.00
2019-01-26T18:41:18.040Z,97.99
2019-01-26T18:43:48.367Z,98.11
2019-01-26T18:46:18.642Z,97.90
2019-01-26T18:48:48.923Z,97.89
2019-01-26T18:54:25.866Z,98.01
2019-01-26T18:59:37.785Z,97.96
2019-01-26T19:02:14.673Z,98.08
2019-01-26T19:05:06.288Z,98.28
2019-01-26T19:07:36.584Z,98.29
2019-01-26T19:10:07.499Z,98.43
2019-01-26T19:15:23.206Z,98.43
2019-01-26T19:17:53.475Z,98.51
2019-01-26T19:20:23.806Z,98.49
2019-01-26T19:23:14.423Z,98.51
2019-01-26T19:25:45.404Z,98.43
2019-01-26T19:28:15.710Z,98.53
2019-01-26T19:30:46.023Z,98.42
2019-01-26T19:36:18.931Z,98.40
2019-01-26T19:38:49.389Z,98.21
2019-01-26T19:41:19.701Z,98.14
2019-01-26T19:46:45.071Z,98.05
2019-01-26T19:49:15.409Z,97.90
2019-01-26T19:51:58.762Z,98.04
2019-01-26T19:54:29.107Z,98.05
2019-01-26T19:56:59.384Z,98.02
2019-01-26T19:59:30.609Z,97.76
2019-01-26T20:11:21.902Z,97.70
2019-01-26T20:19:47.298Z,97.48
2019-01-26T20:22:38.073Z,97.28
2019-01-26T20:28:05.203Z,97.35
2019-01-26T20:34:00.558Z,96.81
2019-01-26T20:36:31.037Z,96.55
2019-01-26T20:39:01.444Z,96.60
2019-01-26T20:41:33.272Z,96.35
2019-01-26T20:44:03.543Z,96.30
2019-01-26T20:46:33.795Z,96.46
2019-01-26T20:49:04.151Z,96.39
2019-01-26T20:51:34.433Z,96.42
2019-01-26T20:56:47.784Z,96.23
2019-01-26T21:02:19.940Z,95.93
2019-01-26T21:04:50.166Z,96.02
2019-01-26T21:07:20.673Z,96.09
2019-01-26T21:18:08.004Z,96.25
2019-01-26T21:20:38.303Z,95.89
2019-01-26T21:23:08.559Z,96.00
2019-01-26T21:25:45.318Z,96.09
2019-01-26T21:28:15.942Z,95.96
2019-01-26T21:30:46.341Z,96.30
2019-01-26T21:36:12.029Z,95.49
2019-01-26T21:38:42.555Z,95.86
2019-01-26T21:41:13.011Z,95.42
2019-01-26T21:43:43.309Z,95.15
2019-01-26T21:46:13.552Z,95.46
2019-01-26T21:48:43.824Z,95.57
2019-01-26T21:57:07.859Z,95.89
2019-01-26T21:59:38.102Z,95.30
2019-01-26T22:04:51.499Z,95.01
2019-01-26T22:07:21.802Z,94.79
2019-01-26T22:09:52.108Z,94.50
2019-01-26T22:12:22.332Z,94.45
2019-01-26T22:14:53.026Z,93.86
2019-01-26T22:17:23.232Z,93.97
2019-01-26T22:19:53.505Z,93.97
2019-01-26T22:28:09.275Z,93.23
2019-01-26T22:30:39.577Z,93.08
2019-01-26T22:33:09.992Z,93.37
2019-01-26T22:35:40.258Z,93.03
2019-01-26T22:38:10.528Z,92.75
2019-01-26T22:40:57.484Z,92.39
2019-01-26T22:43:27.731Z,92.81
2019-01-26T22:45:58.042Z,92.81
2019-01-26T22:48:28.294Z,92.72
2019-01-26T22:51:13.676Z,92.60
2019-01-26T22:53:43.931Z,92.38
2019-01-26T22:56:14.197Z,92.56
2019-01-26T22:58:44.522Z,92.49
2019-01-26T23:05:07.014Z,92.36
2019-01-26T23:08:01.932Z,92.27
2019-01-26T23:11:12.124Z,92.01
2019-01-26T23:14:21.597Z,91.71
2019-01-26T23:17:30.228Z,91.75
2019-01-26T23:20:25.980Z,91.41
2019-01-26T23:23:28.696Z,91.24
2019-01-26T23:26:38.581Z,91.23
2019-01-26T23:29:47.216Z,91.35
2019-01-26T23:32:17.450Z,91.25
2019-01-26T23:37:29.698Z,91.53
2019-01-26T23:42:49.606Z,92.14
2019-01-26T23:45:19.943Z,92.14
2019-01-26T23:47:50.227Z,92.25
2019-01-26T23:50:20.475Z,92.62
2019-01-26T23:52:50.708Z,92.85
2019-01-26T23:55:21.009Z,92.82
2019-01-26T23:57:51.220Z,92.54
